Time;durP1;ratioP1;P1;durP2;ratioP2;P2;SDS_P1;SDS_P2;PMS_P1;PMS_P2;Temp;Humidity;BMP_temperature;BMP_pressure;BME280_temperature;BME280_humidity;BME280_pressure;Samples;Min_cycle;Max_cycle;Signal;HPM_P1;HPM_P2
2024/04/20 00:00:53;;;;;;;5.20;4.47;;;;;;;5.07;88.32;100139.75;2702752;26;20012;-71
2024/04/20 00:02:06;;;;;;;10.00;4.45;;;;;;;5.07;87.63;100128.56;2702845;26;20507;-71
2024/04/20 00:03:19;;;;;;;11.82;3.90;;;;;;;5.06;87.80;100127.69;2703466;26;20002;-72
2024/04/20 00:04:33;;;;;;;6.25;3.42;;;;;;;5.07;87.80;100133.72;2693557;26;20004;-72
2024/04/20 00:05:46;;;;;;;6.85;4.13;;;;;;;5.07;87.99;100142.34;2717192;21;20015;-73
2024/04/20 00:06:59;;;;;;;10.65;4.78;;;;;;;5.06;88.23;100134.56;2710265;26;20477;-73
2024/04/20 00:08:12;;;;;;;9.10;4.57;;;;;;;5.07;87.99;100139.75;2722717;26;19995;-74
2024/04/20 00:09:26;;;;;;;8.82;5.13;;;;;;;5.06;88.31;100150.97;2722397;26;20049;-73
2024/04/20 00:10:39;;;;;;;6.80;4.47;;;;;;;5.05;88.30;100146.63;2722850;26;20002;-74
2024/04/20 00:11:52;;;;;;;8.40;3.63;;;;;;;5.04;87.90;100144.94;2740445;26;20051;-73
2024/04/20 00:13:05;;;;;;;11.25;4.13;;;;;;;5.05;88.01;100144.06;2723467;26;19995;-73
2024/04/20 00:14:18;;;;;;;10.02;3.95;;;;;;;5.06;88.11;100138.03;2722974;26;19996;-74
2024/04/20 00:15:32;;;;;;;9.02;3.75;;;;;;;5.05;88.26;100138.03;2732770;26;19995;-73
2024/04/20 00:16:47;;;;;;;6.38;3.90;;;;;;;5.06;88.52;100144.91;2727371;26;19999;-73
2024/04/20 00:18:00;;;;;;;6.72;3.53;;;;;;;5.05;87.82;100146.63;2739096;26;20064;-73
2024/04/20 00:19:13;;;;;;;11.15;5.20;;;;;;;5.04;88.35;100144.94;2740877;26;20491;-73
2024/04/20 00:20:31;;;;;;;9.68;4.20;;;;;;;5.05;88.47;100145.78;2733744;26;19996;-73
2024/04/20 00:21:44;;;;;;;8.77;5.43;;;;;;;5.05;88.30;100149.22;2718959;26;20457;-74
2024/04/20 00:22:57;;;;;;;14.85;4.03;;;;;;;5.05;88.20;100148.38;2717060;26;20006;-73
2024/04/20 00:24:10;;;;;;;9.90;4.63;;;;;;;5.03;88.15;100144.06;2743378;26;20006;-73
2024/04/20 00:25:24;;;;;;;8.77;3.95;;;;;;;5.03;87.70;100144.06;2734479;26;20014;-73
2024/04/20 00:26:37;;;;;;;7.43;3.25;;;;;;;5.03;88.42;100144.06;2724481;26;20018;-74
2024/04/20 00:27:50;;;;;;;8.85;4.70;;;;;;;5.02;88.14;100144.91;2724972;26;20439;-73
2024/04/20 00:29:03;;;;;;;7.93;4.13;;;;;;;5.02;87.97;100137.16;2723743;26;20460;-72
2024/04/20 00:30:17;;;;;;;12.60;4.60;;;;;;;5.03;87.64;100138.00;2730328;26;20038;-74
2024/04/20 00:31:30;;;;;;;12.45;5.22;;;;;;;5.03;87.86;100145.75;2733571;26;19995;-73
2024/04/20 00:32:45;;;;;;;16.52;5.25;;;;;;;5.01;87.78;100140.59;2738479;26;19999;-73
2024/04/20 00:33:58;;;;;;;13.05;4.63;;;;;;;5.01;88.23;100144.91;2724922;26;20545;-73
2024/04/20 00:35:11;;;;;;;6.32;3.58;;;;;;;4.98;87.68;100145.75;2724509;26;20004;-73
2024/04/20 00:36:25;;;;;;;5.50;2.80;;;;;;;4.99;87.93;100146.63;2706001;26;20011;-73
2024/04/20 00:37:39;;;;;;;18.77;4.78;;;;;;;4.99;87.50;100146.63;2700587;26;19999;-74
2024/04/20 00:38:54;;;;;;;13.77;3.53;;;;;;;4.97;88.06;100149.19;2712429;26;19999;-73
2024/04/20 00:40:07;;;;;;;11.38;3.70;;;;;;;4.99;88.09;100151.78;2738653;26;20011;-73
2024/04/20 00:41:20;;;;;;;21.95;4.70;;;;;;;4.99;88.00;100152.66;2731381;26;20459;-73
2024/04/20 00:42:34;;;;;;;15.15;5.75;;;;;;;4.99;87.56;100146.63;2718311;26;20419;-73
2024/04/20 00:43:47;;;;;;;11.35;4.15;;;;;;;4.98;88.10;100160.38;2738243;26;20370;-73
2024/04/20 00:45:00;;;;;;;12.50;4.15;;;;;;;4.97;87.53;100154.34;2724866;26;20345;-73
2024/04/20 00:46:14;;;;;;;5.60;3.38;;;;;;;4.97;87.83;100156.09;2729409;26;20381;-73
2024/04/20 00:47:28;;;;;;;12.25;4.18;;;;;;;4.96;87.80;100155.22;2733573;26;20069;-73
2024/04/20 00:48:41;;;;;;;9.95;2.95;;;;;;;4.98;87.42;100157.78;2724224;26;20009;-73
2024/04/20 00:49:54;;;;;;;10.13;4.03;;;;;;;4.98;87.57;100160.38;2723453;26;20328;-73
2024/04/20 00:51:08;;;;;;;13.45;6.93;;;;;;;4.98;87.51;100160.38;2712544;26;20351;-74
2024/04/20 00:52:21;;;;;;;7.72;3.47;;;;;;;4.98;87.95;100158.69;2718960;26;21028;-74
2024/04/20 00:53:35;;;;;;;7.70;3.40;;;;;;;4.97;87.85;100158.66;2701608;26;20000;-73
2024/04/20 00:54:48;;;;;;;12.82;6.55;;;;;;;4.96;87.95;100159.53;2683502;26;20048;-73
2024/04/20 00:56:02;;;;;;;9.48;3.95;;;;;;;4.95;87.41;100162.97;2702952;26;19999;-73
2024/04/20 00:57:15;;;;;;;15.52;4.18;;;;;;;4.94;87.73;100156.94;2730362;26;19990;-73
2024/04/20 00:58:29;;;;;;;14.07;4.63;;;;;;;4.92;87.66;100160.34;2720719;26;20414;-74
2024/04/20 00:59:43;;;;;;;11.30;5.05;;;;;;;4.92;87.41;100171.56;2724413;26;20007;-73
2024/04/20 01:00:56;;;;;;;15.02;4.50;;;;;;;4.91;87.97;100161.22;2729873;26;20033;-74
2024/04/20 01:02:10;;;;;;;16.48;5.53;;;;;;;4.93;87.73;100169.84;2729106;26;19994;-74
2024/04/20 01:03:26;;;;;;;7.63;3.95;;;;;;;4.91;87.77;100166.41;2730363;26;19995;-73
2024/04/20 01:04:39;;;;;;;12.02;4.15;;;;;;;4.88;87.74;100164.66;2742449;26;20010;-73
2024/04/20 01:05:52;;;;;;;10.73;3.08;;;;;;;4.88;87.76;100162.06;2741224;26;20007;-73
2024/04/20 01:07:06;;;;;;;7.00;3.50;;;;;;;4.86;87.85;100162.91;2742197;26;20010;-74
2024/04/20 01:08:19;;;;;;;11.43;4.82;;;;;;;4.85;87.30;100164.59;2742823;26;20013;-74
2024/04/20 01:09:32;;;;;;;8.77;3.30;;;;;;;4.84;87.60;100164.63;2731281;26;20422;-73
2024/04/20 01:10:46;;;;;;;11.65;3.63;;;;;;;4.82;87.70;100165.44;2725634;26;20093;-73
2024/04/20 01:11:59;;;;;;;11.25;4.18;;;;;;;4.81;87.45;100168.03;2727222;26;19996;-73
2024/04/20 01:13:12;;;;;;;15.73;4.30;;;;;;;4.80;87.50;100167.19;2742500;26;20009;-73
2024/04/20 01:14:25;;;;;;;12.40;4.00;;;;;;;4.81;87.33;100168.03;2741055;26;20674;-74
2024/04/20 01:15:39;;;;;;;9.15;3.80;;;;;;;4.81;87.37;100173.22;2730087;26;19995;-74
2024/04/20 01:16:52;;;;;;;10.32;3.55;;;;;;;4.78;87.72;100171.47;2742211;26;20038;-74
2024/04/20 01:18:05;;;;;;;7.55;3.40;;;;;;;4.76;87.74;100175.75;2737883;26;20037;-73
2024/04/20 01:19:22;;;;;;;14.48;4.25;;;;;;;4.76;87.33;100167.16;2730046;26;20003;-73
2024/04/20 01:20:35;;;;;;;7.50;3.85;;;;;;;4.74;87.60;100171.44;2730912;26;19995;-73
2024/04/20 01:21:50;;;;;;;10.05;3.47;;;;;;;4.73;87.63;100173.16;2724835;26;20340;-74
2024/04/20 01:23:03;;;;;;;11.77;4.20;;;;;;;4.71;87.51;100172.28;2697307;26;19999;-74
2024/04/20 01:24:18;;;;;;;15.38;4.13;;;;;;;4.71;87.20;100169.69;2712514;26;20006;-74
2024/04/20 01:25:32;;;;;;;11.50;4.95;;;;;;;4.68;87.69;100177.44;2720786;26;20006;-74
2024/04/20 01:26:45;;;;;;;12.85;4.20;;;;;;;4.68;87.38;100177.44;2711007;26;20456;-73
2024/04/20 01:27:58;;;;;;;12.95;3.38;;;;;;;4.67;87.29;100175.69;2723340;26;19995;-73
2024/04/20 01:29:12;;;;;;;14.30;4.93;;;;;;;4.66;87.59;100173.97;2723461;26;20325;-74
2024/04/20 01:30:25;;;;;;;13.52;4.57;;;;;;;4.67;87.52;100180.00;2723562;26;20033;-72
2024/04/20 01:31:38;;;;;;;10.15;3.72;;;;;;;4.67;87.71;100180.00;2723715;26;20000;-73
2024/04/20 01:32:52;;;;;;;9.93;2.70;;;;;;;4.67;87.66;100182.56;2723679;26;20011;-73
2024/04/20 01:34:05;;;;;;;6.32;3.40;;;;;;;4.66;87.44;100179.13;2724167;26;20011;-73
2024/04/20 01:35:20;;;;;;;19.77;6.13;;;;;;;4.66;87.42;100178.28;2723543;26;20468;-73
2024/04/20 01:36:34;;;;;;;11.65;4.38;;;;;;;4.65;87.21;100179.13;2730175;26;20517;-73
2024/04/20 01:37:47;;;;;;;12.15;5.10;;;;;;;4.65;87.20;100187.75;2723116;26;20011;-73
2024/04/20 01:39:00;;;;;;;13.50;3.10;;;;;;;4.64;87.14;100182.56;2710620;26;20058;-73
2024/04/20 01:40:13;;;;;;;10.73;3.03;;;;;;;4.63;87.20;100186.88;2723347;26;20012;-73
2024/04/20 01:41:27;;;;;;;21.58;3.15;;;;;;;4.63;87.03;100186.00;2724284;26;20014;-73
2024/04/20 01:42:40;;;;;;;9.95;3.28;;;;;;;4.63;86.92;100194.63;2723235;26;19996;-73
2024/04/20 01:43:54;;;;;;;12.57;3.60;;;;;;;4.62;87.27;100195.47;2723678;26;20339;-73
2024/04/20 01:45:07;;;;;;;13.85;3.35;;;;;;;4.62;86.83;100195.47;2723448;26;20600;-73
2024/04/20 01:46:20;;;;;;;16.00;4.05;;;;;;;4.62;87.27;100194.59;2711188;26;20403;-74
2024/04/20 01:47:33;;;;;;;8.95;3.70;;;;;;;4.62;87.02;100203.25;2727325;26;20007;-73
2024/04/20 01:48:47;;;;;;;13.77;4.00;;;;;;;4.63;87.49;100196.34;2711312;26;20116;-73
2024/04/20 01:50:00;;;;;;;16.48;4.70;;;;;;;4.62;87.33;100203.25;2725901;26;20335;-74
2024/04/20 01:51:13;;;;;;;7.53;4.03;;;;;;;4.63;87.13;100207.53;2716043;26;20368;-74
2024/04/20 01:52:27;;;;;;;21.13;6.03;;;;;;;4.63;87.12;100207.53;2734206;26;20071;-73
2024/04/20 01:53:40;;;;;;;8.32;3.33;;;;;;;4.62;87.15;100207.50;2722817;26;19995;-74
2024/04/20 01:54:53;;;;;;;10.52;5.25;;;;;;;4.61;87.09;100211.81;2726244;26;20479;-73
2024/04/20 01:56:07;;;;;;;10.45;4.30;;;;;;;4.60;87.02;100215.28;2726649;26;20453;-74
2024/04/20 01:57:20;;;;;;;10.68;4.15;;;;;;;4.60;86.75;100212.69;2735845;26;19995;-74
2024/04/20 01:58:33;;;;;;;13.23;4.50;;;;;;;4.58;87.02;100207.50;2723374;26;20076;-73
2024/04/20 01:59:47;;;;;;;11.55;3.40;;;;;;;4.58;87.14;100209.22;2722863;26;20000;-73
2024/04/20 02:01:00;;;;;;;14.52;4.00;;;;;;;4.59;86.81;100216.09;2723657;26;20010;-74
2024/04/20 02:02:13;;;;;;;18.58;4.13;;;;;;;4.56;86.75;100213.50;2723896;26;20000;-74
2024/04/20 02:03:26;;;;;;;14.15;3.88;;;;;;;4.58;86.60;100216.97;2723282;26;20003;-73
2024/04/20 02:04:40;;;;;;;13.10;3.28;;;;;;;4.59;87.12;100216.09;2712898;26;20012;-74
2024/04/20 02:05:53;;;;;;;15.80;4.03;;;;;;;4.58;86.88;100209.22;2712723;26;20362;-74
2024/04/20 02:07:06;;;;;;;12.00;3.75;;;;;;;4.57;86.94;100217.84;2725305;26;20436;-74
2024/04/20 02:08:19;;;;;;;16.70;5.28;;;;;;;4.56;86.94;100214.38;2724954;26;20484;-73
2024/04/20 02:09:33;;;;;;;11.38;3.40;;;;;;;4.56;86.94;100214.38;2715351;26;20000;-73
2024/04/20 02:10:46;;;;;;;15.82;3.85;;;;;;;4.56;86.82;100219.53;2725857;26;19996;-74
2024/04/20 02:11:59;;;;;;;15.38;3.95;;;;;;;4.56;86.66;100218.69;2725000;26;20642;-73
2024/04/20 02:13:13;;;;;;;20.23;4.43;;;;;;;4.55;86.72;100220.41;2725129;26;20473;-73
2024/04/20 02:14:26;;;;;;;13.38;4.20;;;;;;;4.53;86.74;100224.69;2724639;26;20018;-74
2024/04/20 02:15:40;;;;;;;12.13;5.28;;;;;;;4.54;87.15;100220.38;2712697;26;19996;-74
2024/04/20 02:16:53;;;;;;;8.30;4.15;;;;;;;4.54;86.91;100229.00;2695254;26;20044;-74
2024/04/20 02:18:06;;;;;;;8.23;3.40;;;;;;;4.53;86.93;100227.25;2697067;26;19997;-73
2024/04/20 02:19:19;;;;;;;18.23;5.80;;;;;;;4.53;86.96;100236.75;2724899;26;20010;-73
2024/04/20 02:20:33;;;;;;;12.77;4.20;;;;;;;4.53;86.87;100231.56;2725286;26;19995;-73
2024/04/20 02:21:46;;;;;;;11.80;4.28;;;;;;;4.53;86.93;100234.16;2724630;26;20000;-74
2024/04/20 02:22:59;;;;;;;8.68;3.25;;;;;;;4.53;87.13;100239.31;2725113;26;20036;-74
2024/04/20 02:24:12;;;;;;;11.13;4.07;;;;;;;4.53;86.81;100240.19;2724960;26;20010;-73
2024/04/20 02:25:26;;;;;;;12.50;5.25;;;;;;;4.52;87.06;100235.03;2725367;26;20028;-73
2024/04/20 02:26:39;;;;;;;17.25;4.03;;;;;;;4.52;86.95;100240.19;2725681;26;20456;-74
2024/04/20 02:27:53;;;;;;;11.13;3.53;;;;;;;4.50;86.68;100247.06;2725353;26;19996;-74
2024/04/20 02:29:07;;;;;;;17.88;5.18;;;;;;;4.50;86.66;100245.34;2724125;26;20082;-73
2024/04/20 02:30:20;;;;;;;16.70;3.92;;;;;;;4.50;86.71;100245.34;2713065;26;20007;-73
2024/04/20 02:31:33;;;;;;;21.52;4.78;;;;;;;4.51;86.98;100241.88;2713241;26;20003;-74
2024/04/20 02:32:46;;;;;;;11.88;3.75;;;;;;;4.52;87.06;100240.19;2713080;26;19999;-73
2024/04/20 02:34:00;;;;;;;13.80;5.18;;;;;;;4.53;86.98;100241.91;2723977;26;20454;-73
2024/04/20 02:35:13;;;;;;;18.55;4.43;;;;;;;4.52;86.68;100243.63;2724861;26;20477;-73
2024/04/20 02:36:27;;;;;;;14.05;4.45;;;;;;;4.52;86.73;100238.47;2713233;26;19995;-73
2024/04/20 02:37:40;;;;;;;15.75;5.10;;;;;;;4.52;86.92;100242.78;2724592;26;19996;-74
2024/04/20 02:38:54;;;;;;;13.98;5.38;;;;;;;4.52;87.26;100238.47;2724516;26;20455;-73
2024/04/20 02:40:07;;;;;;;20.83;4.80;;;;;;;4.52;86.60;100237.59;2712956;26;19999;-74
2024/04/20 02:41:21;;;;;;;15.30;5.85;;;;;;;4.51;87.13;100236.72;2712853;26;20456;-73
2024/04/20 02:42:34;;;;;;;14.60;4.43;;;;;;;4.49;86.56;100242.72;2712513;26;20029;-74
2024/04/20 02:43:47;;;;;;;11.43;3.25;;;;;;;4.45;86.95;100240.97;2724669;26;20007;-73
2024/04/20 02:45:00;;;;;;;11.77;5.13;;;;;;;4.42;86.48;100234.06;2724972;26;20340;-74
2024/04/20 02:46:14;;;;;;;18.88;4.38;;;;;;;4.41;87.02;100237.47;2724964;26;20335;-74
2024/04/20 02:47:27;;;;;;;12.23;4.38;;;;;;;4.40;86.43;100243.50;2725398;26;19999;-73
2024/04/20 02:48:41;;;;;;;14.07;3.90;;;;;;;4.38;86.66;100237.44;2724421;26;19995;-73
2024/04/20 02:49:54;;;;;;;18.10;4.90;;;;;;;4.36;86.66;100237.47;2712385;26;19991;-73
2024/04/20 02:51:08;;;;;;;16.05;5.68;;;;;;;4.35;86.92;100243.47;2713112;26;20006;-74
2024/04/20 02:52:21;;;;;;;17.00;4.47;;;;;;;4.34;86.71;100234.00;2706676;26;20501;-73
2024/04/20 02:53:35;;;;;;;16.00;4.85;;;;;;;4.33;86.56;100237.41;2709741;26;20327;-73
2024/04/20 02:54:48;;;;;;;13.00;5.07;;;;;;;4.31;86.49;100243.41;2743214;26;20009;-74
2024/04/20 02:56:02;;;;;;;18.67;5.90;;;;;;;4.28;86.96;100238.22;2743894;26;19991;-73
2024/04/20 02:57:15;;;;;;;14.95;5.50;;;;;;;4.26;87.17;100245.97;2743698;26;20084;-73
2024/04/20 02:58:29;;;;;;;16.60;4.75;;;;;;;4.22;86.61;100235.56;2742799;25;19999;-73
2024/04/20 02:59:43;;;;;;;12.40;3.50;;;;;;;4.21;86.74;100239.00;2742370;26;20169;-73
2024/04/20 03:01:00;;;;;;;14.68;4.85;;;;;;;4.18;87.00;100237.25;2712980;26;20491;-73
2024/04/20 03:02:13;;;;;;;14.25;4.03;;;;;;;4.17;86.72;100245.84;2720356;26;20014;-73
2024/04/20 03:03:28;;;;;;;10.63;4.07;;;;;;;4.15;86.70;100234.63;2743140;26;20042;-74
2024/04/20 03:04:41;;;;;;;19.00;5.45;;;;;;;4.14;87.27;100240.66;2742752;26;20035;-72
2024/04/20 03:05:55;;;;;;;14.35;5.18;;;;;;;4.12;86.62;100232.88;2728373;26;20011;-74
2024/04/20 03:07:08;;;;;;;14.73;5.25;;;;;;;4.12;86.70;100243.22;2741906;26;20101;-73
2024/04/20 03:08:21;;;;;;;10.45;3.75;;;;;;;4.11;87.15;100236.31;2730981;26;20009;-74
2024/04/20 03:09:35;;;;;;;11.90;4.25;;;;;;;4.11;87.19;100238.06;2730229;26;20039;-73
2024/04/20 03:10:48;;;;;;;22.08;5.32;;;;;;;4.10;86.79;100239.75;2742567;26;20002;-73
2024/04/20 03:12:01;;;;;;;9.18;3.83;;;;;;;4.09;86.91;100239.75;2727012;26;20072;-73
2024/04/20 03:13:15;;;;;;;12.05;3.83;;;;;;;4.09;86.63;100242.31;2742806;26;19998;-74
2024/04/20 03:14:28;;;;;;;12.80;3.97;;;;;;;4.07;87.25;100246.59;2741673;26;19999;-73
2024/04/20 03:15:42;;;;;;;14.43;6.00;;;;;;;4.08;86.77;100243.16;2730640;26;20010;-73
2024/04/20 03:16:55;;;;;;;11.57;4.05;;;;;;;4.07;87.12;100246.59;2730574;26;20668;-74
2024/04/20 03:18:09;;;;;;;12.75;4.55;;;;;;;4.06;87.42;100245.75;2729605;26;20002;-74
2024/04/20 03:19:24;;;;;;;14.93;4.45;;;;;;;4.06;87.05;100257.78;2730527;26;20053;-74
2024/04/20 03:20:37;;;;;;;11.82;4.13;;;;;;;4.07;86.94;100252.63;2730933;26;19995;-73
2024/04/20 03:21:50;;;;;;;16.67;4.07;;;;;;;4.08;87.13;100256.97;2730600;26;20038;-74
2024/04/20 03:23:04;;;;;;;12.70;4.15;;;;;;;4.08;87.41;100261.22;2742340;26;20011;-73
2024/04/20 03:24:17;;;;;;;14.95;4.70;;;;;;;4.10;86.92;100264.69;2724719;26;20462;-73
2024/04/20 03:25:30;;;;;;;12.02;4.72;;;;;;;4.10;87.04;100265.56;2724900;26;20014;-73
2024/04/20 03:26:43;;;;;;;13.90;4.07;;;;;;;4.10;87.45;100264.69;2724445;26;20000;-72
2024/04/20 03:27:56;;;;;;;13.40;4.40;;;;;;;4.11;87.55;100269.03;2724717;26;20011;-74
2024/04/20 03:29:10;;;;;;;10.68;4.10;;;;;;;4.10;87.46;100267.28;2724473;26;20015;-74
2024/04/20 03:30:23;;;;;;;16.48;5.40;;;;;;;4.08;87.14;100263.81;2724274;26;20793;-74
2024/04/20 03:31:36;;;;;;;11.82;3.78;;;;;;;4.06;87.16;100263.81;2724249;26;20440;-74
2024/04/20 03:32:49;;;;;;;14.93;4.78;;;;;;;4.07;87.04;100275.00;2712615;26;19999;-73
2024/04/20 03:34:03;;;;;;;15.63;6.47;;;;;;;4.05;87.57;100271.53;2711831;26;20010;-74
2024/04/20 03:35:16;;;;;;;15.60;5.05;;;;;;;4.02;87.48;100274.09;2724561;26;20018;-74
2024/04/20 03:36:29;;;;;;;10.25;4.13;;;;;;;4.02;87.62;100274.09;2724345;26;20014;-74
2024/04/20 03:37:43;;;;;;;9.85;4.18;;;;;;;3.98;87.33;100270.59;2723795;26;20015;-73
2024/04/20 03:38:56;;;;;;;12.00;4.38;;;;;;;3.98;87.40;100277.50;2725119;26;19999;-74
2024/04/20 03:40:10;;;;;;;10.10;5.93;;;;;;;3.98;87.27;100285.25;2725379;26;20455;-73
2024/04/20 03:41:23;;;;;;;10.68;4.63;;;;;;;3.98;87.16;100280.06;2725389;26;20042;-74
2024/04/20 03:42:36;;;;;;;13.85;4.22;;;;;;;3.98;87.16;100285.25;2724092;26;20460;-74
2024/04/20 03:43:49;;;;;;;14.52;6.20;;;;;;;3.98;87.23;100277.50;2726122;26;20011;-73
2024/04/20 03:45:03;;;;;;;19.63;7.22;;;;;;;3.99;87.25;100286.97;2724474;26;20735;-73
2024/04/20 03:46:16;;;;;;;13.55;4.82;;;;;;;3.97;87.64;100286.94;2712200;26;20464;-73
2024/04/20 03:47:29;;;;;;;21.40;6.75;;;;;;;3.98;87.20;100293.00;2712660;26;20000;-73
2024/04/20 03:48:42;;;;;;;17.27;5.25;;;;;;;3.97;87.29;100299.84;2724464;26;20021;-74
2024/04/20 03:49:56;;;;;;;15.68;4.47;;;;;;;3.96;87.41;100299.84;2736437;26;19999;-73
2024/04/20 03:51:09;;;;;;;15.98;4.38;;;;;;;3.94;87.46;100303.25;2715454;26;19999;-73
2024/04/20 03:52:22;;;;;;;11.38;5.88;;;;;;;3.97;87.28;100298.97;2725260;26;20061;-73
2024/04/20 03:53:35;;;;;;;18.20;5.45;;;;;;;3.96;87.85;100305.88;2702636;26;20000;-73
2024/04/20 03:54:49;;;;;;;16.77;4.25;;;;;;;3.96;87.79;100302.41;2719291;26;20018;-73
2024/04/20 03:56:02;;;;;;;19.58;5.10;;;;;;;3.97;87.89;100310.16;2739330;26;20007;-72
2024/04/20 03:57:15;;;;;;;11.00;4.13;;;;;;;3.96;87.73;100307.59;2742871;26;20096;-73
2024/04/20 03:58:28;;;;;;;14.30;5.45;;;;;;;3.97;87.65;100306.72;2742847;26;20002;-73
2024/04/20 03:59:42;;;;;;;21.20;6.72;;;;;;;3.96;87.99;100310.16;2731997;26;20073;-74
2024/04/20 04:00:55;;;;;;;13.10;5.45;;;;;;;3.96;87.93;100305.00;2738076;26;19999;-74
2024/04/20 04:02:08;;;;;;;18.65;5.57;;;;;;;3.98;88.18;100316.22;2728066;26;20067;-74
2024/04/20 04:03:22;;;;;;;21.60;7.00;;;;;;;3.97;87.94;100309.31;2742974;26;20003;-74
2024/04/20 04:04:36;;;;;;;18.23;5.00;;;;;;;3.97;87.76;100317.06;2730569;26;19998;-74
2024/04/20 04:05:49;;;;;;;17.10;5.80;;;;;;;3.97;87.77;100317.91;2718503;26;20423;-73
2024/04/20 04:07:03;;;;;;;15.07;4.18;;;;;;;4.00;87.74;100319.66;2727102;26;20122;-72
2024/04/20 04:08:16;;;;;;;13.30;4.20;;;;;;;4.02;88.16;100328.31;2715910;26;20020;-73
2024/04/20 04:09:30;;;;;;;20.58;4.85;;;;;;;4.03;87.93;100324.91;2729441;26;20074;-74
2024/04/20 04:10:44;;;;;;;17.30;5.15;;;;;;;4.03;87.83;100320.59;2732390;26;19999;-74
2024/04/20 04:11:58;;;;;;;13.68;4.57;;;;;;;4.03;87.70;100330.06;2739299;26;20003;-74
2024/04/20 04:13:14;;;;;;;11.13;4.97;;;;;;;4.02;87.81;100323.16;2728066;26;20004;-74
2024/04/20 04:14:28;;;;;;;14.88;4.22;;;;;;;4.01;87.64;100329.16;2735709;26;20029;-73
2024/04/20 04:15:41;;;;;;;33.15;5.55;;;;;;;4.02;88.39;100328.31;2734011;26;20834;-74
2024/04/20 04:16:56;;;;;;;13.75;5.13;;;;;;;4.00;88.04;100328.31;2729503;26;20069;-74
2024/04/20 04:18:10;;;;;;;26.33;6.43;;;;;;;4.01;87.68;100326.59;2738953;26;20313;-74
2024/04/20 04:19:23;;;;;;;15.65;6.55;;;;;;;4.00;88.12;100332.56;2729809;26;19999;-73
2024/04/20 04:20:36;;;;;;;13.27;4.90;;;;;;;3.98;87.62;100330.00;2735055;26;19996;-73
2024/04/20 04:21:50;;;;;;;19.77;6.18;;;;;;;3.98;88.22;100332.56;2723445;26;20379;-74
2024/04/20 04:23:03;;;;;;;14.73;5.50;;;;;;;3.98;88.14;100331.72;2739192;26;19991;-74
2024/04/20 04:24:17;;;;;;;15.00;3.70;;;;;;;3.98;88.04;100330.00;2709371;26;20465;-73
2024/04/20 04:25:30;;;;;;;11.85;4.20;;;;;;;3.99;87.87;100344.63;2723434;26;20000;-74
2024/04/20 04:26:43;;;;;;;13.25;4.82;;;;;;;4.00;87.95;100337.75;2727491;26;20006;-74
2024/04/20 04:27:57;;;;;;;21.83;4.93;;;;;;;3.99;87.93;100343.75;2723494;26;19999;-74
2024/04/20 04:29:10;;;;;;;21.35;5.53;;;;;;;4.01;88.36;100348.09;2725193;26;20460;-73
2024/04/20 04:30:24;;;;;;;13.50;4.50;;;;;;;4.02;88.42;100346.38;2742368;26;20021;-75
2024/04/20 04:31:39;;;;;;;19.92;4.60;;;;;;;4.02;87.99;100347.25;2735125;26;19992;-74
2024/04/20 04:32:52;;;;;;;9.15;4.53;;;;;;;4.04;88.30;100353.31;2736131;26;20420;-74
2024/04/20 04:34:05;;;;;;;16.50;4.70;;;;;;;4.05;87.83;100346.41;2715333;26;20014;-74
2024/04/20 04:35:19;;;;;;;18.88;5.55;;;;;;;4.05;87.95;100352.47;2738803;26;20007;-74
2024/04/20 04:36:32;;;;;;;27.33;5.95;;;;;;;4.06;87.84;100361.94;2731174;26;20060;-75
2024/04/20 04:37:45;;;;;;;7.65;4.43;;;;;;;4.07;88.04;100361.09;2701629;26;20022;-74
2024/04/20 04:39:00;;;;;;;18.65;4.50;;;;;;;4.08;88.06;100359.34;2700573;26;20010;-74
2024/04/20 04:40:13;;;;;;;10.55;3.97;;;;;;;4.08;87.97;100364.53;2724245;26;20041;-74
2024/04/20 04:41:26;;;;;;;19.25;5.20;;;;;;;4.07;87.98;100363.66;2729582;26;20006;-74
2024/04/20 04:42:39;;;;;;;24.08;4.75;;;;;;;4.08;88.36;100372.28;2733474;26;20068;-73
2024/04/20 04:43:53;;;;;;;16.80;4.50;;;;;;;4.08;88.39;100372.28;2736094;26;20012;-73
2024/04/20 04:45:06;;;;;;;26.40;5.57;;;;;;;4.11;88.32;100377.50;2715461;26;19995;-74
2024/04/20 04:46:20;;;;;;;24.67;5.78;;;;;;;4.12;88.66;100368.91;2726294;26;20003;-74
2024/04/20 04:47:33;;;;;;;15.02;5.47;;;;;;;4.13;87.91;100373.19;2730983;26;20005;-73
2024/04/20 04:48:46;;;;;;;22.67;7.75;;;;;;;4.13;87.97;100370.63;2732132;26;20031;-74
2024/04/20 04:49:59;;;;;;;9.52;4.70;;;;;;;4.13;87.81;100379.25;2723292;26;20039;-74
2024/04/20 04:51:13;;;;;;;12.65;3.97;;;;;;;4.14;88.03;100382.72;2724212;26;20006;-74
2024/04/20 04:52:26;;;;;;;16.48;4.90;;;;;;;4.16;88.47;100378.44;2725052;26;19995;-73
2024/04/20 04:53:39;;;;;;;19.75;5.78;;;;;;;4.17;88.10;100385.31;2705732;26;20035;-73
2024/04/20 04:54:52;;;;;;;8.50;4.10;;;;;;;4.20;88.01;100389.66;2700948;26;20003;-73
2024/04/20 04:56:06;;;;;;;15.77;4.72;;;;;;;4.20;88.31;100385.34;2712395;26;19991;-73
2024/04/20 04:57:20;;;;;;;20.83;5.55;;;;;;;4.24;87.91;100391.44;2712611;26;20000;-74
2024/04/20 04:58:33;;;;;;;19.48;4.53;;;;;;;4.25;88.42;100393.16;2711884;26;19995;-73
2024/04/20 04:59:46;;;;;;;16.83;5.53;;;;;;;4.25;88.39;100394.03;2715853;26;20010;-74
2024/04/20 05:01:00;;;;;;;11.27;3.85;;;;;;;4.24;88.19;100400.06;2724510;26;19999;-74
2024/04/20 05:02:13;;;;;;;19.63;7.10;;;;;;;4.25;88.12;100396.63;2723687;26;20363;-74
2024/04/20 05:03:26;;;;;;;7.80;4.13;;;;;;;4.25;87.79;100409.53;2712357;26;20006;-73
2024/04/20 05:04:41;;;;;;;14.15;4.70;;;;;;;4.28;88.18;100404.41;2712110;26;19996;-73
2024/04/20 05:05:55;;;;;;;14.93;4.72;;;;;;;4.28;88.31;100404.41;2712063;26;19996;-73
2024/04/20 05:07:08;;;;;;;11.75;4.47;;;;;;;4.32;88.05;100408.78;2723082;26;20011;-73
2024/04/20 05:08:21;;;;;;;12.23;4.85;;;;;;;4.32;87.81;100407.91;2723779;26;19996;-74
2024/04/20 05:09:34;;;;;;;11.68;4.82;;;;;;;4.33;88.49;100404.47;2723457;26;19995;-74
2024/04/20 05:10:48;;;;;;;15.80;5.82;;;;;;;4.37;87.82;100416.59;2724958;26;19999;-73
2024/04/20 05:12:01;;;;;;;16.65;4.45;;;;;;;4.38;88.20;100416.59;2724109;26;20031;-73
2024/04/20 05:13:14;;;;;;;11.60;4.80;;;;;;;4.40;88.42;100416.63;2724045;26;20011;-74
2024/04/20 05:14:27;;;;;;;13.38;5.03;;;;;;;4.41;88.26;100420.94;2724611;26;20023;-74
2024/04/20 05:15:41;;;;;;;13.02;5.90;;;;;;;4.43;87.87;100416.66;2724778;26;20014;-74
2024/04/20 05:16:54;;;;;;;16.38;4.95;;;;;;;4.48;88.32;100429.63;2724083;26;19991;-73
2024/04/20 05:18:07;;;;;;;18.15;5.47;;;;;;;4.48;88.41;100429.63;2723374;26;20014;-74
2024/04/20 05:19:21;;;;;;;18.65;5.43;;;;;;;4.50;88.29;100425.38;2723441;26;20067;-74
2024/04/20 05:20:35;;;;;;;13.77;4.20;;;;;;;4.52;88.27;100429.69;2724002;26;20465;-74
2024/04/20 05:21:49;;;;;;;11.75;4.50;;;;;;;4.54;87.94;100433.19;2724177;26;20029;-74
2024/04/20 05:23:02;;;;;;;15.07;4.75;;;;;;;4.55;88.00;100439.22;2723209;26;20037;-74
2024/04/20 05:24:15;;;;;;;16.13;5.25;;;;;;;4.56;88.17;100435.75;2727122;26;19995;-74
2024/04/20 05:25:28;;;;;;;12.20;4.10;;;;;;;4.58;88.44;100439.25;2723896;26;20000;-74
2024/04/20 05:26:42;;;;;;;13.98;6.65;;;;;;;4.61;88.19;100446.16;2723550;26;20338;-74
2024/04/20 05:27:55;;;;;;;19.02;4.55;;;;;;;4.63;88.23;100437.59;2724188;26;20340;-74
2024/04/20 05:29:08;;;;;;;16.52;4.55;;;;;;;4.66;87.97;100441.91;2723224;26;20487;-73
2024/04/20 05:30:21;;;;;;;19.42;5.32;;;;;;;4.65;88.14;100440.19;2711578;26;20000;-73
2024/04/20 05:31:35;;;;;;;17.35;4.57;;;;;;;4.63;88.09;100445.34;2706277;26;20023;-73
2024/04/20 05:32:48;;;;;;;14.60;3.88;;;;;;;4.64;88.09;100447.06;2726207;26;20007;-73
2024/04/20 05:34:01;;;;;;;12.95;5.13;;;;;;;4.64;87.62;100443.63;2729054;26;20000;-73
2024/04/20 05:35:14;;;;;;;13.00;4.40;;;;;;;4.64;87.91;100436.72;2723423;26;20006;-73
2024/04/20 05:36:28;;;;;;;14.10;4.25;;;;;;;4.66;87.75;100441.91;2711860;26;20003;-74
2024/04/20 05:37:41;;;;;;;13.27;4.22;;;;;;;4.68;87.71;100448.84;2719790;26;20006;-74
2024/04/20 05:38:54;;;;;;;15.68;5.78;;;;;;;4.71;87.63;100443.72;2717679;26;19999;-73
2024/04/20 05:40:08;;;;;;;15.20;4.10;;;;;;;4.75;87.85;100447.19;2712057;26;19996;-74
2024/04/20 05:41:21;;;;;;;7.20;3.90;;;;;;;4.78;87.76;100447.25;2708943;26;20011;-73
2024/04/20 05:42:34;;;;;;;17.85;4.32;;;;;;;4.82;87.77;100455.03;2723435;26;20010;-74